createdAt,value
2022-11-10T00:00:56.752Z,3.67
2022-11-10T00:03:43.117Z,1.77
2022-11-10T00:06:30.070Z,2.17
2022-11-10T00:09:17.091Z,4.93
2022-11-10T00:12:03.980Z,2.53
2022-11-10T00:15:09.523Z,3.40
2022-11-10T00:17:56.114Z,3.90
2022-11-10T00:20:43.315Z,2.07
2022-11-10T00:23:30.424Z,3.80
2022-11-10T00:26:19.180Z,2.50
2022-11-10T00:29:06.096Z,2.47
2022-11-10T00:31:54.712Z,6.10
2022-11-10T00:34:41.467Z,2.60
2022-11-10T00:37:28.022Z,2.70
2022-11-10T00:40:14.855Z,3.80
2022-11-10T00:43:01.386Z,5.47
2022-11-10T00:45:48.807Z,5.30
2022-11-10T00:48:37.291Z,3.30
2022-11-10T00:51:26.560Z,9.53
2022-11-10T00:54:13.429Z,4.33
2022-11-10T00:57:00.126Z,3.83
2022-11-10T00:59:47.131Z,3.70
2022-11-10T01:02:34.066Z,5.90
2022-11-10T01:05:23.231Z,4.90
2022-11-10T01:08:11.058Z,5.83
2022-11-10T01:11:03.763Z,2.30
2022-11-10T01:13:52.318Z,7.70
2022-11-10T01:16:38.956Z,4.07
2022-11-10T01:19:25.742Z,7.73
2022-11-10T01:22:13.670Z,7.40
2022-11-10T01:25:00.816Z,3.83
2022-11-10T01:27:47.755Z,3.10
2022-11-10T01:30:34.751Z,3.30
2022-11-10T01:33:22.161Z,2.47
2022-11-10T01:36:11.079Z,5.13
2022-11-10T01:38:59.386Z,3.63
2022-11-10T01:41:45.942Z,10.43
2022-11-10T01:44:33.194Z,2.60
2022-11-10T01:47:20.136Z,2.87
2022-11-10T01:50:08.326Z,6.00
2022-11-10T01:52:58.812Z,2.90
2022-11-10T01:55:49.105Z,5.40
2022-11-10T01:58:40.218Z,3.90
2022-11-10T02:01:27.505Z,4.10
2022-11-10T02:04:17.518Z,4.57
2022-11-10T02:07:04.353Z,1.93
2022-11-10T02:09:51.189Z,5.83
2022-11-10T02:12:39.785Z,3.43
2022-11-10T02:15:27.243Z,1.60
2022-11-10T02:18:14.372Z,8.80
2022-11-10T02:21:05.758Z,4.07
2022-11-10T02:23:53.941Z,2.47
2022-11-10T02:26:44.750Z,4.17
2022-11-10T02:29:31.700Z,4.17
2022-11-10T02:32:18.591Z,5.83
2022-11-10T02:35:06.307Z,5.43
2022-11-10T02:37:54.364Z,3.87
2022-11-10T02:40:41.373Z,7.40
2022-11-10T02:43:28.350Z,3.90
2022-11-10T02:46:15.122Z,4.90
2022-11-10T02:49:02.159Z,2.20
2022-11-10T02:51:48.983Z,3.00
2022-11-10T02:54:37.330Z,4.53
2022-11-10T02:57:24.204Z,3.90
2022-11-10T03:00:12.170Z,5.90
2022-11-10T03:02:59.204Z,6.13
2022-11-10T03:05:45.879Z,3.40
2022-11-10T03:08:33.021Z,3.90
2022-11-10T03:11:21.159Z,7.13
2022-11-10T03:14:08.099Z,11.23
2022-11-10T03:16:54.961Z,10.80
2022-11-10T03:19:41.773Z,1.67
2022-11-10T03:22:28.827Z,2.93
2022-11-10T03:25:15.602Z,3.03
2022-11-10T03:28:03.859Z,9.50
2022-11-10T03:30:50.740Z,7.47
2022-11-10T03:33:38.000Z,5.60
2022-11-10T03:36:24.551Z,4.13
2022-11-10T03:39:11.543Z,3.80
2022-11-10T03:41:58.396Z,6.67
2022-11-10T03:44:46.478Z,2.13
2022-11-10T03:47:34.431Z,10.70
2022-11-10T03:50:20.945Z,3.90
2022-11-10T03:53:07.804Z,2.17
2022-11-10T03:55:54.703Z,2.40
2022-11-10T03:58:42.282Z,3.20
2022-11-10T04:01:30.427Z,4.10
2022-11-10T04:04:31.055Z,3.00
2022-11-10T04:07:35.332Z,3.57
2022-11-10T04:10:22.195Z,2.13
2022-11-10T04:13:26.717Z,3.37
2022-11-10T04:16:13.994Z,6.07
2022-11-10T04:19:02.057Z,5.90
2022-11-10T04:21:49.183Z,4.17
2022-11-10T04:24:35.946Z,3.03
2022-11-10T04:27:22.866Z,3.53
2022-11-10T04:30:10.751Z,5.40
2022-11-10T04:32:57.674Z,6.00
2022-11-10T04:35:45.709Z,6.10
2022-11-10T04:38:32.568Z,7.20
2022-11-10T04:41:19.795Z,5.57
2022-11-10T04:44:06.749Z,2.53
2022-11-10T04:46:53.685Z,6.70
2022-11-10T04:49:40.189Z,5.07
2022-11-10T04:52:28.889Z,2.20
2022-11-10T04:55:16.347Z,3.27
2022-11-10T04:58:03.507Z,3.77
2022-11-10T05:00:50.245Z,6.00
2022-11-10T05:03:36.707Z,3.23
2022-11-10T05:06:23.618Z,1.77
2022-11-10T05:09:12.123Z,3.10
2022-11-10T05:11:58.683Z,6.10
2022-11-10T05:14:45.627Z,4.83
2022-11-10T05:17:32.669Z,6.60
2022-11-10T05:20:20.090Z,4.17
2022-11-10T05:23:24.361Z,2.90
2022-11-10T05:26:14.633Z,4.33
2022-11-10T05:29:01.426Z,4.47
2022-11-10T05:31:51.552Z,7.03
2022-11-10T05:34:38.352Z,6.00
2022-11-10T05:37:24.856Z,5.13
2022-11-10T05:40:12.567Z,6.10
2022-11-10T05:43:01.051Z,5.90
2022-11-10T05:45:47.903Z,3.37
2022-11-10T05:48:34.883Z,2.60
2022-11-10T05:51:21.686Z,3.47
2022-11-10T05:54:08.994Z,2.47
2022-11-10T05:56:55.542Z,8.00
2022-11-10T05:59:44.054Z,10.90
2022-11-10T06:02:30.871Z,4.53
2022-11-10T06:05:17.541Z,9.70
2022-11-10T06:08:05.923Z,7.77
2022-11-10T06:10:53.765Z,9.70
2022-11-10T06:13:40.389Z,14.63
2022-11-10T06:16:28.685Z,11.50
2022-11-10T06:19:15.599Z,10.80
2022-11-10T06:22:07.504Z,10.30
2022-11-10T06:24:54.873Z,6.67
2022-11-10T06:27:45.583Z,7.43
2022-11-10T06:30:34.429Z,5.93
2022-11-10T06:33:23.101Z,6.07
2022-11-10T06:36:10.847Z,8.67
2022-11-10T06:38:57.728Z,7.43
2022-11-10T06:41:44.657Z,9.60
2022-11-10T06:44:31.687Z,5.77
2022-11-10T06:47:19.629Z,4.10
2022-11-10T06:50:10.131Z,5.73
2022-11-10T06:52:57.012Z,4.40
2022-11-10T06:55:43.753Z,6.00
2022-11-10T06:58:30.685Z,5.30
2022-11-10T07:01:22.088Z,5.40
2022-11-10T07:04:24.594Z,14.30
2022-11-10T07:07:14.276Z,5.80
2022-11-10T07:10:06.509Z,5.00
2022-11-10T07:12:58.619Z,4.77
2022-11-10T07:15:45.265Z,5.33
2022-11-10T07:18:31.899Z,4.27
2022-11-10T07:21:18.783Z,10.63
2022-11-10T07:24:08.286Z,6.80
2022-11-10T07:26:55.015Z,6.60
2022-11-10T07:29:41.750Z,5.43
2022-11-10T07:32:28.503Z,7.40
2022-11-10T07:35:15.430Z,6.67
2022-11-10T07:38:05.545Z,11.00
2022-11-10T07:40:54.724Z,14.33
2022-11-10T07:43:41.503Z,9.93
2022-11-10T07:46:29.056Z,10.23
2022-11-10T07:49:16.582Z,10.17
2022-11-10T07:52:03.355Z,8.57
2022-11-10T07:54:50.514Z,6.47
2022-11-10T07:57:38.781Z,11.00
2022-11-10T08:00:25.758Z,7.50
2022-11-10T08:03:14.008Z,10.60
2022-11-10T08:06:00.994Z,11.63
2022-11-10T08:08:48.415Z,12.17
2022-11-10T08:11:35.335Z,8.37
2022-11-10T08:14:23.589Z,15.63
2022-11-10T08:17:10.462Z,11.17
2022-11-10T08:19:57.287Z,13.73
2022-11-10T08:22:44.608Z,7.50
2022-11-10T08:25:35.344Z,12.13
2022-11-10T08:28:22.525Z,11.80
2022-11-10T08:31:10.786Z,13.30
2022-11-10T08:33:57.167Z,11.60
2022-11-10T08:36:44.368Z,14.23
2022-11-10T08:39:38.917Z,12.90
2022-11-10T08:42:26.344Z,8.33
2022-11-10T08:45:13.209Z,5.60
2022-11-10T08:48:03.162Z,6.20
2022-11-10T08:50:51.689Z,5.90
2022-11-10T08:53:38.591Z,7.93
2022-11-10T08:56:25.323Z,6.33
2022-11-10T08:59:12.344Z,12.90
2022-11-10T09:01:59.550Z,8.13
2022-11-10T09:04:48.101Z,9.67
2022-11-10T09:07:44.229Z,6.27
2022-11-10T09:10:31.573Z,11.70
2022-11-10T09:13:19.044Z,8.23
2022-11-10T09:16:07.193Z,8.63
2022-11-10T09:18:54.133Z,7.67
2022-11-10T09:21:42.242Z,11.77
2022-11-10T09:24:31.442Z,7.33
2022-11-10T09:27:18.694Z,8.70
2022-11-10T09:30:07.205Z,8.17
2022-11-10T09:32:55.594Z,11.07
2022-11-10T09:35:42.989Z,8.63
2022-11-10T09:38:31.065Z,8.97
2022-11-10T09:41:19.253Z,9.47
2022-11-10T09:44:10.342Z,7.53
2022-11-10T09:47:01.677Z,5.37
2022-11-10T09:49:52.987Z,6.80
2022-11-10T09:52:42.515Z,9.67
2022-11-10T09:55:38.331Z,4.67
2022-11-10T09:58:29.403Z,4.97
2022-11-10T10:01:27.807Z,6.73
2022-11-10T10:04:29.244Z,6.90
2022-11-10T10:07:19.186Z,11.77
2022-11-10T10:10:17.484Z,26.73
2022-11-10T10:13:27.597Z,7.60
2022-11-10T10:16:20.227Z,3.80
2022-11-10T10:19:16.007Z,4.60
2022-11-10T10:22:31.727Z,6.93
2022-11-10T10:25:21.936Z,3.57
2022-11-10T10:28:17.468Z,6.80
2022-11-10T10:31:15.998Z,5.00
2022-11-10T10:34:03.325Z,8.50
2022-11-10T10:36:49.991Z,4.37
2022-11-10T10:39:42.782Z,6.67
2022-11-10T10:42:32.604Z,9.13
2022-11-10T10:45:24.120Z,5.03
2022-11-10T10:48:27.619Z,4.00
2022-11-10T10:51:30.055Z,4.80
2022-11-10T10:54:27.742Z,9.73
2022-11-10T10:57:23.130Z,4.33
2022-11-10T11:00:22.037Z,6.40
2022-11-10T11:03:20.465Z,9.70
2022-11-10T11:06:19.256Z,5.37
2022-11-10T11:09:10.878Z,3.00
2022-11-10T11:12:05.707Z,6.13
2022-11-10T11:14:53.828Z,6.13
2022-11-10T11:17:41.144Z,4.27
2022-11-10T11:20:38.933Z,3.80
2022-11-10T11:23:51.187Z,4.33
2022-11-10T11:26:45.991Z,4.13
2022-11-10T11:29:48.942Z,3.83
2022-11-10T11:32:57.410Z,3.40
2022-11-10T11:35:50.912Z,3.27
2022-11-10T11:38:53.314Z,4.17
2022-11-10T11:41:47.550Z,3.63
2022-11-10T11:44:46.774Z,3.97
2022-11-10T11:47:46.566Z,5.33
2022-11-10T11:50:40.841Z,3.20
2022-11-10T11:53:41.708Z,4.90
2022-11-10T11:56:31.874Z,2.80
2022-11-10T11:59:33.170Z,2.97
2022-11-10T12:02:37.076Z,4.40
2022-11-10T12:05:43.100Z,5.20
2022-11-10T12:08:49.328Z,2.67
2022-11-10T12:11:49.114Z,2.80
2022-11-10T12:14:46.878Z,2.20
2022-11-10T12:17:44.658Z,2.80
2022-11-10T12:20:44.627Z,4.23
2022-11-10T12:23:42.557Z,3.00
2022-11-10T12:26:42.722Z,5.23
2022-11-10T12:29:34.646Z,1.60
2022-11-10T12:32:27.568Z,4.90
2022-11-10T12:35:19.394Z,3.93
2022-11-10T12:38:11.908Z,2.90
2022-11-10T12:41:08.928Z,2.20
2022-11-10T12:44:07.505Z,4.83
2022-11-10T12:46:58.791Z,6.90
2022-11-10T12:50:04.816Z,6.43
2022-11-10T12:52:56.279Z,6.03
2022-11-10T12:55:46.788Z,2.67
2022-11-10T12:58:35.130Z,4.50
2022-11-10T13:01:22.169Z,4.90
2022-11-10T13:04:09.325Z,4.53
2022-11-10T13:06:59.063Z,3.37
2022-11-10T13:09:46.054Z,3.67
2022-11-10T13:12:32.977Z,4.00
2022-11-10T13:15:49.753Z,4.87
2022-11-10T13:19:01.579Z,2.27
2022-11-10T13:22:10.363Z,3.00
2022-11-10T13:25:30.848Z,6.70
2022-11-10T13:28:56.070Z,4.70
2022-11-10T13:31:54.982Z,4.53
2022-11-10T13:34:42.514Z,3.93
2022-11-10T13:37:53.060Z,4.70
2022-11-10T13:40:41.162Z,5.00
2022-11-10T13:43:28.809Z,9.17
2022-11-10T13:46:15.640Z,8.60
2022-11-10T13:49:43.842Z,6.33
2022-11-10T13:52:46.902Z,8.03
2022-11-10T13:55:47.802Z,6.90
2022-11-10T13:58:36.813Z,11.37
2022-11-10T14:01:30.538Z,17.87
2022-11-10T14:04:41.396Z,8.87
2022-11-10T14:07:32.174Z,10.13
2022-11-10T14:10:26.958Z,10.27
2022-11-10T14:13:18.178Z,6.80
2022-11-10T14:16:12.397Z,11.53
2022-11-10T14:19:04.206Z,8.50
2022-11-10T14:21:58.229Z,6.43
2022-11-10T14:24:54.566Z,5.73
2022-11-10T14:27:42.301Z,14.07
2022-11-10T14:30:32.957Z,9.90
2022-11-10T14:33:20.125Z,8.70
2022-11-10T14:36:09.142Z,5.07
2022-11-10T14:38:58.592Z,12.87
2022-11-10T14:41:48.130Z,14.83
2022-11-10T14:44:35.869Z,8.10
2022-11-10T14:47:27.819Z,12.40
2022-11-10T14:50:21.067Z,11.27
2022-11-10T14:53:14.805Z,15.63
2022-11-10T14:56:05.484Z,13.53
2022-11-10T14:58:52.908Z,5.87
2022-11-10T15:01:44.566Z,10.50
2022-11-10T15:04:34.301Z,10.87
2022-11-10T15:07:21.053Z,12.00
2022-11-10T15:10:15.086Z,9.73
2022-11-10T15:13:05.714Z,14.57
2022-11-10T15:15:53.659Z,8.00
2022-11-10T15:18:40.785Z,15.63
2022-11-10T15:21:33.942Z,6.70
2022-11-10T15:24:21.113Z,12.27
2022-11-10T15:27:14.466Z,16.87
2022-11-10T15:30:04.547Z,8.07
2022-11-10T15:32:51.859Z,12.83
2022-11-10T15:35:38.913Z,8.83
2022-11-10T15:38:31.627Z,6.00
2022-11-10T15:41:27.416Z,6.00
2022-11-10T15:44:21.089Z,5.30
2022-11-10T15:47:13.492Z,9.27
2022-11-10T15:50:02.174Z,5.93
2022-11-10T15:52:48.795Z,5.03
2022-11-10T15:55:35.622Z,7.23
2022-11-10T15:58:25.188Z,5.20
2022-11-10T16:01:13.448Z,5.17
2022-11-10T16:04:01.930Z,5.20
2022-11-10T16:06:48.747Z,9.50
2022-11-10T16:09:35.572Z,3.50
2022-11-10T16:12:24.398Z,3.23
2022-11-10T16:15:17.415Z,5.07
2022-11-10T16:18:04.463Z,5.77
2022-11-10T16:20:53.975Z,3.63
2022-11-10T16:23:40.954Z,3.40
2022-11-10T16:26:28.415Z,3.53
2022-11-10T16:29:18.980Z,8.67
2022-11-10T16:32:07.276Z,7.97
2022-11-10T16:34:53.917Z,5.47
2022-11-10T16:37:44.098Z,6.30
2022-11-10T16:40:31.403Z,5.87
2022-11-10T16:43:18.920Z,8.87
2022-11-10T16:46:14.690Z,5.83
2022-11-10T16:49:04.464Z,6.43
2022-11-10T16:51:51.553Z,6.13
2022-11-10T16:54:40.095Z,6.87
2022-11-10T16:57:26.970Z,3.60
2022-11-10T17:00:15.199Z,4.13
2022-11-10T17:03:05.917Z,4.53
2022-11-10T17:05:52.818Z,4.20
2022-11-10T17:08:40.599Z,3.93
2022-11-10T17:11:28.841Z,4.20
2022-11-10T17:14:16.675Z,4.50
2022-11-10T17:17:03.981Z,5.93
2022-11-10T17:19:51.975Z,3.43
2022-11-10T17:22:38.765Z,6.83
2022-11-10T17:25:31.330Z,3.90
2022-11-10T17:28:20.227Z,5.30
2022-11-10T17:31:07.539Z,5.67
2022-11-10T17:33:54.855Z,12.13
2022-11-10T17:36:41.662Z,8.80
2022-11-10T17:39:28.571Z,17.77
2022-11-10T17:42:15.766Z,13.87
2022-11-10T17:45:03.894Z,11.37
2022-11-10T17:47:51.277Z,15.10
2022-11-10T17:50:39.537Z,9.73
2022-11-10T17:53:29.054Z,13.47
2022-11-10T17:56:15.749Z,15.80
2022-11-10T17:59:02.497Z,23.37
2022-11-10T18:01:51.108Z,39.03
2022-11-10T18:04:38.204Z,40.20
2022-11-10T18:07:25.176Z,35.67
2022-11-10T18:10:14.495Z,32.30
2022-11-10T18:13:01.110Z,21.83
2022-11-10T18:15:49.257Z,32.60
2022-11-10T18:18:38.526Z,9.33
2022-11-10T18:21:25.553Z,7.23
2022-11-10T18:24:12.443Z,9.67
2022-11-10T18:26:59.803Z,12.33
2022-11-10T18:29:47.336Z,15.80
2022-11-10T18:32:34.054Z,16.73
2022-11-10T18:35:22.547Z,21.70
2022-11-10T18:38:12.612Z,15.50
2022-11-10T18:41:24.851Z,8.93
2022-11-10T18:44:11.475Z,10.23
2022-11-10T18:46:58.208Z,9.27
2022-11-10T18:49:45.171Z,9.53
2022-11-10T18:52:34.066Z,9.73
2022-11-10T18:55:21.552Z,8.10
2022-11-10T18:58:08.634Z,7.77
2022-11-10T19:01:03.158Z,10.17
2022-11-10T19:03:50.213Z,9.27
2022-11-10T19:06:37.237Z,7.83
2022-11-10T19:09:25.760Z,11.70
2022-11-10T19:12:12.958Z,7.33
2022-11-10T19:14:59.718Z,9.23
2022-11-10T19:17:46.348Z,3.93
2022-11-10T19:20:35.537Z,5.10
2022-11-10T19:23:22.879Z,3.23
2022-11-10T19:26:16.754Z,3.30
2022-11-10T19:29:07.916Z,3.53
2022-11-10T19:31:54.898Z,3.00
2022-11-10T19:34:42.261Z,4.23
2022-11-10T19:37:33.498Z,5.23
2022-11-10T19:40:21.870Z,6.83
2022-11-10T19:43:09.796Z,11.30
2022-11-10T19:45:56.872Z,6.47
2022-11-10T19:48:43.767Z,8.40
2022-11-10T19:51:30.335Z,5.60
2022-11-10T19:54:17.157Z,7.53
2022-11-10T19:57:03.788Z,13.63
2022-11-10T19:59:52.157Z,13.00
2022-11-10T20:02:45.176Z,13.10
2022-11-10T20:05:32.690Z,12.13
2022-11-10T20:08:19.507Z,14.03
2022-11-10T20:11:09.285Z,12.43
2022-11-10T20:13:59.162Z,6.10
2022-11-10T20:16:47.620Z,7.67
2022-11-10T20:19:40.787Z,3.97
2022-11-10T20:22:28.197Z,3.00
2022-11-10T20:25:15.328Z,5.40
2022-11-10T20:28:05.200Z,3.30
2022-11-10T20:30:51.823Z,3.97
2022-11-10T20:33:40.131Z,5.93
2022-11-10T20:36:29.102Z,5.60
2022-11-10T20:39:16.179Z,4.87
2022-11-10T20:42:02.951Z,4.73
2022-11-10T20:44:49.952Z,5.20
2022-11-10T20:47:37.115Z,7.80
2022-11-10T20:50:25.610Z,5.40
2022-11-10T20:53:12.433Z,6.00
2022-11-10T20:56:01.018Z,9.40
2022-11-10T20:58:47.697Z,16.30
2022-11-10T21:01:34.709Z,16.20
2022-11-10T21:04:21.866Z,17.10
2022-11-10T21:07:10.119Z,13.03
2022-11-10T21:09:56.940Z,13.13
2022-11-10T21:12:52.769Z,17.50
2022-11-10T21:15:41.032Z,15.17
2022-11-10T21:18:30.383Z,12.83
2022-11-10T21:21:22.630Z,14.43
2022-11-10T21:24:12.476Z,12.33
2022-11-10T21:27:00.171Z,12.07
2022-11-10T21:29:47.254Z,7.73
2022-11-10T21:32:34.358Z,4.87
2022-11-10T21:35:21.393Z,8.50
2022-11-10T21:38:09.124Z,5.40
2022-11-10T21:40:58.788Z,5.90
2022-11-10T21:43:45.318Z,4.53
2022-11-10T21:46:32.115Z,6.80
2022-11-10T21:49:19.130Z,3.60
2022-11-10T21:52:06.148Z,5.93
2022-11-10T21:54:53.806Z,7.47
2022-11-10T21:57:42.140Z,7.60
2022-11-10T22:00:29.302Z,10.07
2022-11-10T22:03:16.386Z,10.10
2022-11-10T22:06:05.350Z,9.80
2022-11-10T22:08:52.864Z,8.13
2022-11-10T22:11:56.938Z,8.70
2022-11-10T22:15:02.658Z,7.27
2022-11-10T22:18:07.097Z,5.17
2022-11-10T22:20:53.967Z,2.87
2022-11-10T22:23:58.073Z,2.03
2022-11-10T22:26:44.758Z,2.90
2022-11-10T22:29:33.390Z,3.83
2022-11-10T22:32:21.558Z,5.00
2022-11-10T22:35:29.473Z,9.00
2022-11-10T22:38:16.304Z,5.03
2022-11-10T22:41:17.367Z,9.00
2022-11-10T22:44:07.895Z,12.03
2022-11-10T22:46:55.151Z,9.67
2022-11-10T22:49:43.126Z,8.30
2022-11-10T22:52:30.124Z,4.97
2022-11-10T22:55:16.975Z,9.00
2022-11-10T22:58:03.910Z,6.33
2022-11-10T23:00:50.928Z,5.33
2022-11-10T23:03:39.422Z,7.53
2022-11-10T23:06:27.909Z,6.67
2022-11-10T23:09:14.926Z,4.00
2022-11-10T23:12:02.031Z,3.43
2022-11-10T23:14:49.391Z,16.80
2022-11-10T23:17:36.256Z,4.10
2022-11-10T23:20:22.986Z,5.30
2022-11-10T23:23:11.398Z,4.30
2022-11-10T23:25:59.527Z,4.53
2022-11-10T23:28:46.671Z,3.70
2022-11-10T23:31:33.287Z,4.23
2022-11-10T23:34:20.268Z,6.70
2022-11-10T23:37:07.162Z,3.00
2022-11-10T23:39:55.445Z,2.93
2022-11-10T23:42:42.347Z,7.90
2022-11-10T23:45:52.705Z,11.33
2022-11-10T23:48:37.286Z,6.07
2022-11-10T23:51:25.477Z,9.30
2022-11-10T23:54:12.125Z,6.50
2022-11-10T23:57:00.554Z,3.60
2022-11-10T23:59:47.759Z,9.40
